Terminal Aerodrome Forecast
Issued by NWS Jackson, KY

Home | Current Version | Previous Version | Text Only | Print | Product List | Glossary On
Versions: 1 2 3 4 5 6 7 8 9 10 11 12 13 14 15 16 17
000
FTUS43 KJKL 240539
TAFLOZ
TAF
KLOZ 240539Z 2406/2506 VRB03KT P6SM VCSH BKN060 BKN130 BKN200
     FM240900 VRB03KT 6SM -SHRA BR SCT025 BKN050 OVC100
     FM241000 VRB05KT 5SM SHRA BR SCT008 OVC015
     FM241700 22010G18KT P6SM VCSH BKN025 OVC035=

USA.gov is the U.S. government's official web portal to all federal, state and local government web resources and services.